Time;durP1;ratioP1;P1;durP2;ratioP2;P2;SDS_P1;SDS_P2;PMS_P1;PMS_P2;Temp;Humidity;BMP_temperature;BMP_pressure;BME280_temperature;BME280_humidity;BME280_pressure;Samples;Min_cycle;Max_cycle;Signal;HPM_P1;HPM_P2
2023/12/14 00:01:41;;;;;;;22.80;10.33;;;9.40;99.90;;;;;;5059692;28;20553;-73
2023/12/14 00:04:08;;;;;;;19.60;11.00;;;9.50;99.90;;;;;;5060331;28;20483;-73
2023/12/14 00:06:36;;;;;;;37.93;12.10;;;9.60;99.90;;;;;;5059854;28;20478;-74
2023/12/14 00:09:03;;;;;;;30.03;12.63;;;9.50;99.90;;;;;;5058729;28;20489;-74
2023/12/14 00:11:29;;;;;;;19.73;11.60;;;9.50;99.90;;;;;;5062500;28;20481;-73
2023/12/14 00:13:56;;;;;;;31.17;14.70;;;9.30;99.90;;;;;;5063827;28;20548;-73
2023/12/14 00:16:23;;;;;;;29.10;12.37;;;9.30;99.90;;;;;;5064108;28;20483;-73
2023/12/14 00:18:50;;;;;;;32.20;14.57;;;9.10;99.90;;;;;;5062050;28;20841;-73
2023/12/14 00:21:16;;;;;;;19.03;11.97;;;9.10;99.90;;;;;;5064042;28;20481;-73
2023/12/14 00:23:45;;;;;;;25.87;11.47;;;9.10;99.90;;;;;;5063791;28;20853;-74
2023/12/14 00:26:12;;;;;;;30.50;11.13;;;9.10;99.90;;;;;;5061940;28;20478;-74
2023/12/14 00:28:39;;;;;;;18.70;11.47;;;9.20;99.90;;;;;;5063626;28;20470;-74
2023/12/14 00:31:06;;;;;;;22.13;11.07;;;9.20;99.90;;;;;;5063180;28;20546;-74
2023/12/14 00:33:33;;;;;;;27.83;12.50;;;9.20;99.90;;;;;;5063730;28;20585;-74
2023/12/14 00:35:59;;;;;;;26.63;11.57;;;9.30;99.90;;;;;;5067331;28;20468;-76
2023/12/14 00:38:26;;;;;;;16.17;9.40;;;9.30;99.90;;;;;;5064853;28;20471;-76
2023/12/14 00:40:54;;;;;;;26.40;10.97;;;9.40;99.90;;;;;;5058336;28;20584;-76
2023/12/14 00:43:21;;;;;;;20.27;11.20;;;9.30;99.90;;;;;;5073650;28;20576;-74
2023/12/14 00:45:48;;;;;;;24.37;10.67;;;9.40;99.90;;;;;;5062994;28;20850;-74
2023/12/14 00:48:14;;;;;;;22.90;11.17;;;9.50;99.90;;;;;;5063045;28;20479;-73
2023/12/14 00:50:41;;;;;;;20.50;10.47;;;9.50;99.90;;;;;;5063091;28;20948;-74
2023/12/14 00:53:08;;;;;;;14.80;9.33;;;;;;;;;;5062481;28;20489;-74
2023/12/14 00:55:35;;;;;;;28.10;11.97;;;9.50;99.90;;;;;;5062390;28;20477;-74
2023/12/14 00:58:03;;;;;;;24.67;11.57;;;9.50;99.90;;;;;;5062185;28;20840;-73
2023/12/14 01:00:31;;;;;;;51.33;13.17;;;9.40;99.90;;;;;;5060922;28;20602;-73
2023/12/14 01:02:57;;;;;;;19.30;13.17;;;9.50;99.90;;;;;;5060904;28;21001;-74
2023/12/14 01:05:24;;;;;;;19.43;13.30;;;9.50;99.90;;;;;;5060688;28;20478;-73
2023/12/14 01:07:51;;;;;;;27.53;11.60;;;9.50;99.90;;;;;;5061032;28;20674;-73
2023/12/14 01:10:17;;;;;;;27.57;11.73;;;9.50;99.90;;;;;;5062201;28;20557;-74
2023/12/14 01:12:44;;;;;;;25.00;13.20;;;9.50;99.90;;;;;;5063779;28;20513;-73
2023/12/14 01:15:13;;;;;;;29.20;13.23;;;9.60;99.90;;;;;;5061479;28;20473;-74
2023/12/14 01:17:39;;;;;;;22.23;13.90;;;9.60;99.90;;;;;;5059682;28;20467;-74
2023/12/14 01:20:07;;;;;;;25.20;12.83;;;9.60;99.90;;;;;;5062811;28;21143;-74
2023/12/14 01:22:34;;;;;;;23.43;13.13;;;9.70;99.90;;;;;;5060167;28;20577;-74
2023/12/14 01:25:01;;;;;;;19.50;12.40;;;9.70;99.90;;;;;;5061787;28;20478;-74
2023/12/14 01:27:28;;;;;;;23.00;12.17;;;9.60;99.90;;;;;;5060090;28;20475;-74
2023/12/14 01:29:54;;;;;;;32.93;12.73;;;9.60;99.90;;;;;;5062507;28;20581;-74
2023/12/14 01:32:22;;;;;;;24.77;11.93;;;9.60;99.90;;;;;;5060111;28;20485;-74
2023/12/14 01:34:49;;;;;;;31.40;12.47;;;9.60;99.90;;;;;;5066433;28;20823;-73
2023/12/14 01:37:16;;;;;;;19.13;11.93;;;9.50;99.90;;;;;;5062208;28;20471;-73
2023/12/14 01:39:43;;;;;;;25.47;12.03;;;9.60;99.90;;;;;;5061862;28;20900;-74
2023/12/14 01:42:09;;;;;;;31.73;13.10;;;9.60;99.90;;;;;;5044993;28;20465;-73
2023/12/14 01:44:36;;;;;;;24.87;13.13;;;9.50;99.90;;;;;;5067204;28;20485;-74
2023/12/14 01:47:03;;;;;;;23.33;11.13;;;9.40;99.90;;;;;;5060982;28;20950;-75
2023/12/14 01:49:31;;;;;;;21.50;12.10;;;9.30;99.90;;;;;;5060867;28;20850;-74
2023/12/14 01:51:58;;;;;;;24.63;13.70;;;9.20;99.90;;;;;;5061585;28;20655;-73
2023/12/14 01:54:24;;;;;;;22.50;12.43;;;9.20;99.90;;;;;;5061241;28;20485;-73
2023/12/14 01:56:51;;;;;;;28.47;13.60;;;9.10;99.90;;;;;;5067005;28;20484;-73
2023/12/14 01:59:19;;;;;;;22.97;13.10;;;9.10;99.90;;;;;;5058303;28;20467;-73
2023/12/14 02:01:47;;;;;;;20.03;11.27;;;9.00;99.90;;;;;;5048523;28;20490;-74
2023/12/14 02:04:15;;;;;;;17.60;10.70;;;9.10;99.90;;;;;;5062702;28;21019;-73
2023/12/14 02:06:43;;;;;;;18.57;9.90;;;9.10;99.90;;;;;;5061815;28;20470;-74
2023/12/14 02:09:09;;;;;;;52.87;12.33;;;9.10;99.90;;;;;;5060067;28;20598;-73
2023/12/14 02:11:36;;;;;;;15.87;10.43;;;9.10;99.90;;;;;;5061159;28;20502;-74
2023/12/14 02:14:05;;;;;;;15.97;9.60;;;9.20;99.90;;;;;;5060214;28;20819;-73
2023/12/14 02:16:32;;;;;;;23.47;9.87;;;9.20;99.90;;;;;;5057948;28;20569;-74
2023/12/14 02:19:00;;;;;;;17.63;9.43;;;;;;;;;;5061734;28;20487;-74
2023/12/14 02:21:26;;;;;;;16.73;10.00;;;9.20;99.90;;;;;;5061159;28;21182;-73
2023/12/14 02:23:55;;;;;;;23.73;9.77;;;9.20;99.90;;;;;;5061278;28;20483;-74
2023/12/14 02:26:21;;;;;;;27.00;9.87;;;9.20;99.90;;;;;;5060999;28;20520;-73
2023/12/14 02:28:48;;;;;;;17.80;8.93;;;9.20;99.90;;;;;;5061508;28;20497;-73
2023/12/14 02:31:15;;;;;;;18.57;8.97;;;9.20;99.90;;;;;;5061273;28;20487;-73
2023/12/14 02:33:42;;;;;;;19.93;9.67;;;9.20;99.90;;;;;;5059318;28;20494;-73
2023/12/14 02:36:09;;;;;;;19.13;10.47;;;9.20;99.90;;;;;;5058670;28;20471;-73
2023/12/14 02:38:36;;;;;;;13.90;9.27;;;9.40;99.90;;;;;;5060062;28;20479;-73
2023/12/14 02:41:04;;;;;;;15.43;9.77;;;9.40;99.90;;;;;;5060300;28;20561;-74
2023/12/14 02:43:31;;;;;;;63.03;12.30;;;;;;;;;;5060361;28;21117;-74
2023/12/14 02:46:01;;;;;;;15.80;10.00;;;9.90;99.90;;;;;;5060587;28;20471;-74
2023/12/14 02:48:29;;;;;;;13.47;8.50;;;10.00;99.90;;;;;;5060716;28;20525;-73
2023/12/14 02:50:56;;;;;;;13.87;9.40;;;10.00;99.90;;;;;;5060547;28;20483;-73
2023/12/14 02:53:23;;;;;;;14.90;9.13;;;10.10;99.90;;;;;;5061419;28;20486;-73
2023/12/14 02:55:50;;;;;;;13.20;9.70;;;;;;;;;;5060244;28;20502;-73
2023/12/14 02:58:19;;;;;;;30.57;9.10;;;10.10;99.90;;;;;;5059511;28;20486;-74
2023/12/14 03:00:46;;;;;;;13.17;8.27;;;10.20;99.90;;;;;;5059960;28;20846;-74
2023/12/14 03:03:12;;;;;;;12.03;8.73;;;10.20;99.90;;;;;;5059886;28;20562;-74
2023/12/14 03:05:39;;;;;;;23.63;11.50;;;10.20;99.90;;;;;;5060173;28;20957;-73
2023/12/14 03:08:06;;;;;;;13.10;8.53;;;10.20;99.90;;;;;;5059711;28;20478;-74
2023/12/14 03:10:33;;;;;;;16.23;8.80;;;10.20;99.90;;;;;;5059134;28;20505;-74
2023/12/14 03:13:00;;;;;;;14.10;8.00;;;;;;;;;;5059541;28;21362;-74
2023/12/14 03:15:28;;;;;;;14.03;8.33;;;10.00;99.90;;;;;;5058070;28;20574;-74
2023/12/14 03:17:55;;;;;;;36.40;10.20;;;10.00;99.90;;;;;;5056840;28;20514;-74
2023/12/14 03:20:22;;;;;;;16.57;9.90;;;9.90;99.90;;;;;;5059452;28;20807;-74
2023/12/14 03:22:49;;;;;;;24.63;10.70;;;9.90;99.90;;;;;;5056395;28;21340;-74
2023/12/14 03:25:16;;;;;;;23.53;10.57;;;9.90;99.90;;;;;;5059243;28;20550;-74
2023/12/14 03:27:43;;;;;;;17.50;10.80;;;10.00;99.90;;;;;;5059585;28;21065;-73
2023/12/14 03:30:10;;;;;;;20.73;10.60;;;10.00;99.90;;;;;;5059918;28;20477;-74
2023/12/14 03:32:38;;;;;;;26.63;10.80;;;10.10;99.90;;;;;;5060906;28;21186;-74
2023/12/14 03:35:08;;;;;;;19.07;10.30;;;10.00;99.90;;;;;;5060514;28;20483;-74
2023/12/14 03:37:35;;;;;;;16.23;10.07;;;9.90;99.90;;;;;;5059842;28;20479;-74
2023/12/14 03:40:02;;;;;;;21.20;9.90;;;9.80;99.90;;;;;;5060018;28;20467;-73
2023/12/14 03:42:28;;;;;;;21.43;11.67;;;9.80;99.90;;;;;;5060113;28;20920;-73
2023/12/14 03:44:55;;;;;;;16.33;10.13;;;9.90;99.90;;;;;;5059304;28;21023;-74
2023/12/14 03:47:22;;;;;;;18.80;11.00;;;10.00;99.90;;;;;;5059306;28;20472;-74
2023/12/14 03:49:51;;;;;;;19.00;10.60;;;9.90;99.90;;;;;;5056389;28;20972;-73
2023/12/14 03:52:17;;;;;;;37.37;10.60;;;9.80;99.90;;;;;;5064744;28;20477;-73
2023/12/14 03:54:44;;;;;;;17.13;10.83;;;9.70;99.90;;;;;;5059368;28;20481;-73
2023/12/14 03:57:11;;;;;;;25.47;10.30;;;9.70;99.90;;;;;;5055938;28;20912;-73
2023/12/14 03:59:40;;;;;;;25.50;10.07;;;9.60;99.90;;;;;;5058537;28;20479;-72
2023/12/14 04:02:07;;;;;;;15.23;10.20;;;;;;;;;;5058991;28;20483;-72
2023/12/14 04:04:34;;;;;;;18.77;11.20;;;9.50;99.90;;;;;;5060328;28;21066;-73
2023/12/14 04:07:02;;;;;;;40.67;10.80;;;9.60;99.90;;;;;;5059535;28;20466;-73
2023/12/14 04:09:29;;;;;;;19.80;10.40;;;9.60;99.90;;;;;;5060196;28;20901;-72
2023/12/14 04:11:56;;;;;;;17.97;10.00;;;9.60;99.90;;;;;;5060985;28;20621;-73
2023/12/14 04:14:23;;;;;;;40.97;11.97;;;9.60;99.90;;;;;;5060091;28;20601;-73
2023/12/14 04:16:49;;;;;;;19.83;9.77;;;9.60;99.90;;;;;;5055921;28;20482;-73
2023/12/14 04:19:16;;;;;;;17.30;11.03;;;9.60;99.90;;;;;;5058591;28;20482;-73
2023/12/14 04:21:43;;;;;;;17.83;10.67;;;9.70;99.90;;;;;;5058982;28;21875;-73
2023/12/14 04:24:12;;;;;;;17.60;10.00;;;9.70;99.90;;;;;;5058874;28;20479;-73
2023/12/14 04:26:39;;;;;;;23.57;10.20;;;;;;;;;;5057690;28;20846;-73
2023/12/14 04:29:07;;;;;;;21.03;10.80;;;10.00;99.90;;;;;;5059532;28;20473;-73
2023/12/14 04:31:35;;;;;;;19.70;9.03;;;10.10;99.90;;;;;;5058554;28;20513;-73
2023/12/14 04:34:02;;;;;;;25.03;11.10;;;10.10;99.90;;;;;;5063813;28;20622;-73
2023/12/14 04:36:28;;;;;;;16.00;10.40;;;10.10;99.90;;;;;;5035836;28;20561;-72
2023/12/14 04:38:55;;;;;;;14.60;10.20;;;10.00;99.90;;;;;;5071229;28;20475;-73
2023/12/14 04:41:23;;;;;;;22.10;12.07;;;10.00;99.90;;;;;;5060319;28;20881;-73
2023/12/14 04:43:50;;;;;;;25.80;10.10;;;10.00;99.90;;;;;;5059178;28;20546;-72
2023/12/14 04:46:17;;;;;;;18.30;9.60;;;10.10;99.90;;;;;;5059086;28;20485;-73
2023/12/14 04:48:43;;;;;;;22.60;12.30;;;10.20;99.90;;;;;;5060103;28;20505;-72
2023/12/14 04:51:13;;;;;;;17.20;9.30;;;10.20;99.90;;;;;;5059695;28;20981;-73
2023/12/14 04:53:40;;;;;;;17.40;10.77;;;10.30;99.90;;;;;;5061055;28;20532;-72
2023/12/14 04:56:11;;;;;;;17.37;9.87;;;10.30;99.90;;;;;;5059004;28;20490;-73
2023/12/14 04:58:39;;;;;;;19.10;10.40;;;10.30;99.90;;;;;;5062495;28;20580;-76
2023/12/14 05:01:06;;;;;;;43.67;13.63;;;10.20;99.90;;;;;;5053947;28;20589;-74
2023/12/14 05:03:34;;;;;;;18.50;11.20;;;10.20;99.90;;;;;;5060969;28;20577;-74
2023/12/14 05:06:00;;;;;;;33.33;12.37;;;10.30;99.90;;;;;;5062658;28;20562;-73
2023/12/14 05:08:27;;;;;;;30.23;13.20;;;10.20;99.90;;;;;;5062183;28;21044;-73
2023/12/14 05:10:54;;;;;;;21.57;12.23;;;10.20;99.90;;;;;;5061395;28;20578;-73
2023/12/14 05:13:20;;;;;;;17.57;11.00;;;10.10;99.90;;;;;;5062064;28;20532;-73
2023/12/14 05:15:49;;;;;;;36.90;13.90;;;10.00;99.90;;;;;;5062592;28;20924;-74
2023/12/14 05:18:15;;;;;;;28.07;12.03;;;10.00;99.90;;;;;;5062609;28;20517;-74
2023/12/14 05:20:42;;;;;;;16.30;9.23;;;10.00;99.90;;;;;;5061084;28;21104;-74
2023/12/14 05:23:09;;;;;;;16.17;9.83;;;10.00;99.90;;;;;;5058517;28;20490;-74
2023/12/14 05:25:35;;;;;;;16.53;9.80;;;10.00;99.90;;;;;;5064691;28;20478;-75
2023/12/14 05:28:02;;;;;;;22.77;12.60;;;10.00;99.90;;;;;;5062648;28;21073;-74
2023/12/14 05:30:30;;;;;;;71.77;16.07;;;9.90;99.90;;;;;;5062098;28;20566;-74
2023/12/14 05:32:58;;;;;;;65.87;13.63;;;9.80;99.90;;;;;;5063176;28;20491;-74
2023/12/14 05:35:25;;;;;;;23.60;11.40;;;9.50;99.90;;;;;;5060960;28;20479;-74
2023/12/14 05:37:53;;;;;;;28.20;11.37;;;9.50;99.90;;;;;;5061047;28;20575;-74
2023/12/14 05:40:19;;;;;;;21.37;12.60;;;9.50;99.90;;;;;;5062131;28;20482;-74
2023/12/14 05:42:46;;;;;;;25.90;11.10;;;9.60;99.90;;;;;;5063176;28;20490;-74
2023/12/14 05:45:13;;;;;;;16.83;10.27;;;9.70;99.90;;;;;;5062188;28;20479;-74
2023/12/14 05:47:41;;;;;;;17.27;10.67;;;9.80;99.90;;;;;;5061715;28;20594;-73
2023/12/14 05:50:10;;;;;;;15.23;9.43;;;9.70;99.90;;;;;;5061637;28;20490;-75
2023/12/14 05:52:37;;;;;;;24.03;10.90;;;9.70;99.90;;;;;;5057814;28;20558;-73
2023/12/14 05:55:04;;;;;;;19.33;9.70;;;9.80;99.90;;;;;;5061868;28;21139;-73
2023/12/14 05:57:31;;;;;;;18.00;8.70;;;9.80;99.90;;;;;;5062176;28;20578;-73
2023/12/14 05:59:58;;;;;;;22.67;11.80;;;9.90;99.90;;;;;;5062155;28;20562;-73
2023/12/14 06:02:25;;;;;;;22.03;10.97;;;9.90;99.90;;;;;;5062401;28;20940;-74
2023/12/14 06:04:51;;;;;;;54.30;12.87;;;9.80;99.90;;;;;;5062265;28;20598;-74
2023/12/14 06:07:19;;;;;;;22.07;10.30;;;9.80;99.90;;;;;;5060669;28;20475;-74
2023/12/14 06:09:46;;;;;;;20.27;12.87;;;9.80;99.90;;;;;;5060564;28;21963;-73
2023/12/14 06:12:13;;;;;;;36.33;12.67;;;9.80;99.90;;;;;;5060778;28;20582;-73
2023/12/14 06:14:40;;;;;;;20.07;11.40;;;9.60;99.90;;;;;;5061979;28;21778;-73
2023/12/14 06:17:07;;;;;;;27.73;11.50;;;9.50;99.90;;;;;;5060634;28;20578;-73
2023/12/14 06:19:34;;;;;;;25.20;12.03;;;9.40;99.90;;;;;;5061186;28;20483;-73
2023/12/14 06:22:01;;;;;;;25.40;13.63;;;;;;;;;;5062855;28;20542;-73
2023/12/14 06:24:29;;;;;;;36.73;11.80;;;9.40;99.90;;;;;;5060229;28;20566;-73
2023/12/14 06:26:56;;;;;;;18.50;10.67;;;9.30;99.90;;;;;;5061911;28;20532;-73
2023/12/14 06:29:23;;;;;;;28.07;12.83;;;9.30;99.90;;;;;;5060270;28;20463;-73
2023/12/14 06:31:50;;;;;;;18.73;11.40;;;9.30;99.90;;;;;;5060979;28;20485;-73
2023/12/14 06:34:17;;;;;;;26.87;12.57;;;9.30;99.90;;;;;;5061656;28;20498;-73
2023/12/14 06:36:46;;;;;;;30.13;11.70;;;9.30;99.90;;;;;;5059870;28;20475;-73
2023/12/14 06:39:13;;;;;;;25.30;14.03;;;9.20;99.90;;;;;;5060085;28;20609;-73
2023/12/14 06:41:41;;;;;;;25.90;12.50;;;9.10;99.90;;;;;;5060024;28;20487;-73
2023/12/14 06:44:09;;;;;;;30.13;11.90;;;9.10;99.90;;;;;;5058443;28;20558;-73
2023/12/14 06:46:35;;;;;;;97.27;16.30;;;9.10;99.90;;;;;;5059689;28;20478;-73
2023/12/14 06:49:02;;;;;;;26.67;13.40;;;9.00;99.90;;;;;;5059139;28;20469;-74
2023/12/14 06:51:30;;;;;;;52.80;15.10;;;;;;;;;;5065813;28;20966;-74
2023/12/14 06:53:56;;;;;;;29.23;13.37;;;9.00;99.90;;;;;;5060059;28;20544;-74
2023/12/14 06:56:23;;;;;;;25.73;12.73;;;9.00;99.90;;;;;;5059944;28;20585;-74
2023/12/14 06:58:51;;;;;;;29.70;12.33;;;9.00;99.90;;;;;;5058979;28;20510;-74
2023/12/14 07:01:18;;;;;;;34.27;14.40;;;9.00;99.90;;;;;;5059307;28;20483;-74
2023/12/14 07:03:46;;;;;;;24.20;13.00;;;8.90;99.90;;;;;;5059660;28;20570;-74
2023/12/14 07:06:14;;;;;;;28.13;14.73;;;8.90;99.90;;;;;;5060504;28;20514;-73
2023/12/14 07:08:41;;;;;;;28.10;14.50;;;8.90;99.90;;;;;;5056368;28;21105;-73
2023/12/14 07:11:08;;;;;;;22.10;13.07;;;9.00;99.90;;;;;;5065758;28;20507;-73
2023/12/14 07:13:36;;;;;;;24.50;12.83;;;9.20;99.90;;;;;;5059392;28;20478;-73
2023/12/14 07:16:07;;;;;;;24.67;11.70;;;9.20;99.90;;;;;;5066400;28;21030;-74
2023/12/14 07:18:34;;;;;;;25.77;13.27;;;9.10;99.90;;;;;;5060105;28;20475;-74
2023/12/14 07:21:01;;;;;;;31.83;13.17;;;9.10;99.90;;;;;;5059315;28;20581;-74
2023/12/14 07:23:28;;;;;;;25.33;12.70;;;9.10;99.90;;;;;;5059575;28;20471;-74
2023/12/14 07:25:55;;;;;;;44.67;13.87;;;;;;;;;;5059755;28;20491;-74
2023/12/14 07:28:22;;;;;;;37.10;15.40;;;9.00;99.90;;;;;;5058219;28;21059;-74
2023/12/14 07:30:49;;;;;;;28.77;13.07;;;8.90;99.90;;;;;;5060543;28;20511;-74
2023/12/14 07:33:18;;;;;;;32.97;14.27;;;8.90;99.90;;;;;;5059533;28;20489;-73
2023/12/14 07:35:44;;;;;;;28.40;14.63;;;8.80;99.90;;;;;;5058387;28;20554;-73
2023/12/14 07:38:12;;;;;;;29.43;13.33;;;8.80;99.90;;;;;;5059043;28;21025;-73
2023/12/14 07:40:40;;;;;;;29.47;13.10;;;8.80;99.90;;;;;;5060079;28;20483;-73
2023/12/14 07:43:07;;;;;;;26.67;13.87;;;9.00;99.90;;;;;;5060290;28;20471;-73
2023/12/14 07:45:33;;;;;;;20.87;12.17;;;9.00;99.90;;;;;;5061017;28;20475;-73
2023/12/14 07:48:00;;;;;;;27.90;12.10;;;9.20;99.90;;;;;;5058287;28;20482;-73
2023/12/14 07:50:28;;;;;;;29.63;13.87;;;9.30;99.90;;;;;;5059718;28;20479;-73
2023/12/14 07:52:55;;;;;;;24.30;13.70;;;9.40;99.90;;;;;;5060414;28;20483;-73
2023/12/14 07:55:22;;;;;;;47.63;14.80;;;9.50;99.90;;;;;;5059189;28;20849;-73
2023/12/14 07:57:50;;;;;;;25.13;13.87;;;9.60;99.90;;;;;;5058999;28;20489;-74
2023/12/14 08:00:17;;;;;;;39.73;13.10;;;9.70;99.90;;;;;;5059535;28;20483;-73
2023/12/14 08:02:43;;;;;;;24.70;12.17;;;9.80;99.90;;;;;;5060216;28;20987;-72
2023/12/14 08:05:10;;;;;;;21.57;11.87;;;9.70;99.90;;;;;;5060089;28;20475;-72
2023/12/14 08:07:38;;;;;;;39.20;14.13;;;9.60;99.90;;;;;;5060507;28;20532;-72
2023/12/14 08:10:05;;;;;;;32.10;15.00;;;9.50;99.90;;;;;;5057043;28;20573;-73
2023/12/14 08:12:32;;;;;;;33.67;16.37;;;9.40;99.90;;;;;;5067377;28;20546;-72
2023/12/14 08:14:59;;;;;;;25.17;13.80;;;9.30;99.90;;;;;;5059679;28;20983;-72
2023/12/14 08:17:27;;;;;;;33.37;16.27;;;9.20;99.90;;;;;;5059340;28;20483;-72
2023/12/14 08:19:54;;;;;;;31.03;14.13;;;9.20;99.90;;;;;;5059787;28;20490;-72
2023/12/14 08:22:21;;;;;;;28.00;13.53;;;9.10;99.90;;;;;;5059339;28;20478;-72
2023/12/14 08:24:49;;;;;;;28.40;14.87;;;9.10;99.90;;;;;;5059166;28;21063;-72
2023/12/14 08:27:16;;;;;;;29.30;16.00;;;9.00;99.90;;;;;;5060196;28;21036;-72
2023/12/14 08:29:45;;;;;;;29.63;14.60;;;9.10;99.90;;;;;;5059275;28;20493;-72
2023/12/14 08:32:12;;;;;;;30.40;14.23;;;9.20;99.90;;;;;;5059348;28;20478;-72
2023/12/14 08:34:38;;;;;;;42.67;14.07;;;9.20;99.90;;;;;;5061657;28;20478;-72
2023/12/14 08:37:05;;;;;;;32.07;15.20;;;9.20;99.90;;;;;;5063910;28;21060;-72
2023/12/14 08:39:32;;;;;;;54.57;13.73;;;9.30;99.90;;;;;;5061016;28;20569;-72
2023/12/14 08:42:00;;;;;;;30.03;14.60;;;9.40;99.90;;;;;;5063266;28;20562;-72
2023/12/14 08:44:28;;;;;;;72.03;16.50;;;;;;;;;;5063309;28;20911;-72
2023/12/14 08:46:55;;;;;;;24.90;13.50;;;9.60;99.90;;;;;;5060676;28;20564;-72
2023/12/14 08:49:23;;;;;;;32.53;13.30;;;9.70;99.90;;;;;;5062407;28;20624;-72
2023/12/14 08:51:49;;;;;;;34.93;13.97;;;9.80;99.90;;;;;;5063217;28;20915;-72
2023/12/14 08:54:17;;;;;;;23.17;12.57;;;9.80;99.90;;;;;;5062910;28;20570;-72
2023/12/14 08:56:43;;;;;;;26.47;13.30;;;9.90;99.90;;;;;;5062976;28;20483;-72
2023/12/14 08:59:12;;;;;;;27.30;13.20;;;10.00;99.90;;;;;;5062198;28;20549;-72
2023/12/14 09:01:39;;;;;;;26.07;14.27;;;9.90;99.90;;;;;;5063906;28;20558;-72
2023/12/14 09:04:06;;;;;;;20.23;11.97;;;9.80;99.90;;;;;;5062278;28;20577;-72
2023/12/14 09:06:33;;;;;;;26.80;13.10;;;9.70;99.90;;;;;;5061918;28;20704;-72
2023/12/14 09:09:00;;;;;;;36.93;14.27;;;9.70;99.90;;;;;;5060866;28;20559;-73
2023/12/14 09:11:26;;;;;;;23.53;13.63;;;9.80;99.90;;;;;;5062027;28;20573;-71
2023/12/14 09:13:53;;;;;;;35.60;16.33;;;9.90;99.90;;;;;;5063264;28;20479;-72
2023/12/14 09:16:21;;;;;;;41.90;15.70;;;9.80;99.90;;;;;;5062747;28;20493;-71
2023/12/14 09:18:48;;;;;;;33.80;20.70;;;9.80;99.90;;;;;;5062249;28;20899;-72
2023/12/14 09:21:15;;;;;;;24.03;14.20;;;9.80;99.90;;;;;;5062494;28;20481;-72
2023/12/14 09:23:42;;;;;;;30.03;16.00;;;9.80;99.90;;;;;;5060349;28;20507;-72
2023/12/14 09:26:10;;;;;;;24.37;13.60;;;9.80;99.90;;;;;;5062539;28;20478;-72
2023/12/14 09:28:37;;;;;;;25.40;14.47;;;9.80;99.90;;;;;;5060479;28;20571;-72
2023/12/14 09:31:04;;;;;;;26.43;13.80;;;9.90;99.90;;;;;;5061263;28;21032;-72
2023/12/14 09:33:32;;;;;;;26.87;14.17;;;10.00;99.90;;;;;;5062788;28;20482;-72
2023/12/14 09:35:59;;;;;;;25.37;13.70;;;10.00;99.90;;;;;;5062222;28;20522;-72
2023/12/14 09:38:26;;;;;;;28.03;13.77;;;10.10;99.90;;;;;;5061576;28;21011;-72
2023/12/14 09:40:53;;;;;;;31.60;15.43;;;10.10;99.90;;;;;;5061933;28;20578;-72
2023/12/14 09:43:20;;;;;;;26.17;13.30;;;10.10;99.90;;;;;;5060836;28;20486;-72
2023/12/14 09:45:48;;;;;;;25.60;14.60;;;10.10;99.90;;;;;;5060675;28;20483;-72
2023/12/14 09:48:16;;;;;;;26.47;13.77;;;10.20;99.90;;;;;;5056413;28;21209;-72
2023/12/14 09:50:45;;;;;;;33.97;15.70;;;10.10;99.90;;;;;;5065999;28;20502;-72
2023/12/14 09:53:12;;;;;;;19.60;12.17;;;10.30;99.90;;;;;;5042852;28;20583;-72
2023/12/14 09:55:38;;;;;;;29.60;13.03;;;10.30;99.90;;;;;;5041728;28;20474;-72
2023/12/14 09:58:06;;;;;;;25.37;13.17;;;10.30;99.90;;;;;;5041486;28;20480;-72
2023/12/14 10:00:38;;;;;;;27.73;12.63;;;10.30;99.90;;;;;;5041219;28;20510;-72
2023/12/14 10:03:28;;;;;;;19.90;11.33;;;10.30;99.90;;;;;;5039765;28;20505;-73
2023/12/14 10:05:57;;;;;;;21.23;10.80;;;10.30;99.90;;;;;;5045800;28;20482;-73
2023/12/14 10:08:24;;;;;;;19.77;10.00;;;10.30;99.90;;;;;;5058740;28;21045;-73
2023/12/14 10:10:55;;;;;;;35.10;12.87;;;10.20;99.90;;;;;;5045674;28;20663;-72
2023/12/14 10:13:23;;;;;;;19.50;10.43;;;10.30;99.90;;;;;;5052233;28;20475;-73
2023/12/14 10:15:50;;;;;;;25.13;10.73;;;;;;;;;;5049124;28;20902;-73
2023/12/14 10:18:23;;;;;;;21.47;9.73;;;10.20;99.90;;;;;;5039338;28;20582;-73
2023/12/14 10:20:50;;;;;;;16.37;10.03;;;10.30;99.90;;;;;;5048615;28;20587;-72
2023/12/14 10:23:19;;;;;;;16.67;9.83;;;10.30;99.90;;;;;;5044347;28;20846;-72
2023/12/14 10:25:46;;;;;;;16.87;10.53;;;10.30;99.90;;;;;;5051866;28;20485;-72
2023/12/14 10:28:13;;;;;;;18.70;10.60;;;10.30;99.90;;;;;;5050001;28;20854;-72
2023/12/14 10:30:40;;;;;;;20.63;12.10;;;10.40;99.90;;;;;;5035642;28;20483;-72
2023/12/14 10:33:07;;;;;;;19.10;11.60;;;10.40;99.90;;;;;;5033323;28;20565;-72
2023/12/14 10:35:34;;;;;;;16.00;10.37;;;10.40;99.90;;;;;;5043286;28;20484;-72
2023/12/14 10:38:04;;;;;;;13.73;9.13;;;10.30;99.90;;;;;;5041086;28;20496;-72
2023/12/14 10:40:33;;;;;;;20.00;10.73;;;10.40;99.90;;;;;;5043456;28;21007;-72
2023/12/14 10:43:01;;;;;;;16.80;9.93;;;10.30;99.90;;;;;;5040577;28;20476;-72
2023/12/14 10:45:31;;;;;;;14.90;9.90;;;10.40;99.90;;;;;;5040836;28;20541;-72
2023/12/14 10:48:00;;;;;;;18.30;11.73;;;10.40;99.90;;;;;;5011240;28;20533;-72
2023/12/14 10:50:29;;;;;;;13.80;8.90;;;10.40;99.90;;;;;;5047335;28;20472;-72
2023/12/14 10:52:57;;;;;;;17.07;10.00;;;10.40;99.90;;;;;;5041884;28;20490;-72
2023/12/14 10:55:30;;;;;;;16.10;10.57;;;10.50;99.90;;;;;;5035277;28;20478;-72
2023/12/14 10:57:58;;;;;;;15.57;9.03;;;10.50;99.90;;;;;;5042705;28;20486;-72
2023/12/14 11:00:25;;;;;;;17.57;10.17;;;10.50;99.90;;;;;;5055798;28;20493;-72
2023/12/14 11:02:52;;;;;;;15.60;9.70;;;10.60;99.90;;;;;;5060816;28;20933;-72
2023/12/14 11:05:26;;;;;;;24.47;11.67;;;10.60;99.90;;;;;;5056791;28;20586;-72
2023/12/14 11:07:55;;;;;;;17.10;10.50;;;10.70;99.90;;;;;;5053801;28;20561;-72
2023/12/14 11:10:24;;;;;;;16.10;11.13;;;10.60;99.90;;;;;;5062970;28;20483;-72
2023/12/14 11:13:02;;;;;;;25.20;12.13;;;10.60;99.90;;;;;;5038950;28;20483;-72
2023/12/14 11:15:30;;;;;;;20.07;11.13;;;10.60;99.90;;;;;;5043808;28;20682;-72
2023/12/14 11:18:25;;;;;;;15.60;10.43;;;10.60;99.90;;;;;;5044303;28;20472;-72
2023/12/14 11:20:54;;;;;;;18.20;11.27;;;10.60;99.90;;;;;;5051108;28;20464;-71
2023/12/14 11:23:30;;;;;;;20.83;11.33;;;10.60;99.90;;;;;;5047395;28;20566;-72
2023/12/14 11:26:00;;;;;;;19.03;11.13;;;10.60;99.90;;;;;;5039848;28;20562;-71
2023/12/14 11:28:28;;;;;;;17.23;11.60;;;10.60;99.90;;;;;;5037820;28;20488;-72
2023/12/14 11:30:56;;;;;;;19.37;10.73;;;10.60;99.90;;;;;;5053029;28;21118;-72
2023/12/14 11:33:23;;;;;;;23.20;12.30;;;10.70;99.90;;;;;;5057314;28;20556;-71
2023/12/14 11:35:52;;;;;;;19.90;11.93;;;10.60;99.90;;;;;;5051057;28;20487;-72
2023/12/14 11:38:20;;;;;;;18.83;10.67;;;10.70;99.90;;;;;;5057735;28;20475;-72
2023/12/14 11:40:48;;;;;;;20.10;9.93;;;10.70;99.90;;;;;;5052091;28;20986;-71
2023/12/14 11:43:15;;;;;;;17.43;10.77;;;10.80;99.90;;;;;;5051667;28;20475;-71
2023/12/14 11:45:44;;;;;;;15.40;10.00;;;10.70;99.90;;;;;;5048256;28;20482;-72
2023/12/14 11:48:12;;;;;;;13.17;8.90;;;10.80;99.90;;;;;;5043101;28;20571;-72
2023/12/14 11:50:39;;;;;;;17.33;10.40;;;10.80;99.90;;;;;;5056249;28;20485;-71
2023/12/14 11:53:07;;;;;;;21.40;11.10;;;10.80;99.90;;;;;;5046875;28;20484;-72
2023/12/14 11:55:36;;;;;;;14.00;10.57;;;10.80;99.90;;;;;;5039529;28;20927;-72
2023/12/14 11:58:04;;;;;;;16.20;10.30;;;10.80;99.90;;;;;;5039003;28;20558;-73
2023/12/14 12:00:32;;;;;;;19.77;10.37;;;10.90;99.90;;;;;;5041841;28;20917;-72
2023/12/14 12:03:11;;;;;;;13.57;8.93;;;11.10;99.90;;;;;;5037194;28;20495;-73
2023/12/14 12:05:39;;;;;;;20.77;11.07;;;11.30;99.90;;;;;;5039744;28;20499;-72
2023/12/14 12:08:06;;;;;;;17.53;9.50;;;11.50;99.90;;;;;;5044200;28;20550;-72
2023/12/14 12:10:34;;;;;;;12.27;8.10;;;11.60;99.90;;;;;;5043500;28;20878;-73
2023/12/14 12:13:02;;;;;;;12.63;8.27;;;11.70;99.90;;;;;;5044537;28;20491;-72
2023/12/14 12:15:31;;;;;;;16.83;8.50;;;11.80;99.90;;;;;;5043596;28;20472;-73
2023/12/14 12:17:58;;;;;;;11.00;7.57;;;12.00;99.90;;;;;;5042644;28;20567;-72
2023/12/14 12:20:26;;;;;;;8.27;6.50;;;12.00;99.90;;;;;;5042962;28;20467;-73
2023/12/14 12:22:54;;;;;;;12.03;7.30;;;12.10;99.90;;;;;;5043952;28;21021;-72
2023/12/14 12:25:20;;;;;;;14.70;7.37;;;12.00;99.90;;;;;;5043150;28;20562;-73
2023/12/14 12:27:48;;;;;;;9.17;7.10;;;12.00;99.90;;;;;;5038708;28;20570;-72
2023/12/14 12:30:15;;;;;;;15.00;6.90;;;11.90;99.90;;;;;;5043654;28;20562;-73
2023/12/14 12:32:43;;;;;;;13.47;8.00;;;11.90;99.90;;;;;;5057070;28;20474;-72
2023/12/14 12:35:10;;;;;;;11.80;7.40;;;11.80;99.90;;;;;;5047012;28;20567;-72
2023/12/14 12:37:38;;;;;;;12.20;6.80;;;11.70;99.90;;;;;;5053784;28;20724;-72
2023/12/14 12:40:06;;;;;;;11.43;7.17;;;11.70;99.90;;;;;;5048032;28;20467;-73